createdAt,value
2019-05-10T00:03:46.752Z,95.60
2019-05-10T00:08:08.216Z,95.40
2019-05-10T00:12:13.314Z,95.40
2019-05-10T00:16:17.051Z,95.00
2019-05-10T00:20:20.541Z,94.90
2019-05-10T00:24:24.221Z,95.00
2019-05-10T00:28:27.678Z,95.20
2019-05-10T00:32:31.129Z,95.10
2019-05-10T00:36:34.843Z,95.60
2019-05-10T00:40:39.330Z,95.80
2019-05-10T00:44:42.839Z,95.70
2019-05-10T00:48:46.361Z,96.00
2019-05-10T00:52:49.810Z,95.80
2019-05-10T00:56:53.530Z,95.00
2019-05-10T01:00:56.986Z,95.00
2019-05-10T01:05:00.430Z,95.30
2019-05-10T01:09:06.106Z,95.30
2019-05-10T01:13:09.615Z,95.40
2019-05-10T01:17:13.083Z,95.60
2019-05-10T01:21:16.541Z,96.10
2019-05-10T01:25:34.087Z,95.40
2019-05-10T01:29:25.443Z,95.70
2019-05-10T01:33:28.929Z,95.80
2019-05-10T01:37:32.374Z,95.90
2019-05-10T01:41:35.829Z,96.20
2019-05-10T01:45:39.531Z,96.30
2019-05-10T01:49:43.032Z,96.40
2019-05-10T01:53:46.486Z,96.60
2019-05-10T01:57:50.210Z,96.70
2019-05-10T02:01:53.739Z,96.90
2019-05-10T02:05:57.438Z,97.00
2019-05-10T02:10:00.908Z,97.00
2019-05-10T02:14:04.706Z,96.90
2019-05-10T02:18:08.168Z,97.30
2019-05-10T02:22:11.870Z,97.30
2019-05-10T02:26:15.567Z,97.60
2019-05-10T02:30:19.599Z,97.60
2019-05-10T02:34:23.292Z,97.90
2019-05-10T02:38:26.742Z,97.90
2019-05-10T02:42:30.216Z,97.90
2019-05-10T02:46:33.989Z,98.30
2019-05-10T02:50:37.752Z,98.40
2019-05-10T02:54:41.270Z,98.60
2019-05-10T02:58:45.562Z,98.60
2019-05-10T03:02:49.629Z,98.60
2019-05-10T03:07:04.357Z,98.70
2019-05-10T03:11:10.446Z,98.80
2019-05-10T03:15:14.270Z,98.90
2019-05-10T03:19:19.559Z,99.40
2019-05-10T03:23:23.309Z,99.00
2019-05-10T03:27:27.085Z,99.50
2019-05-10T03:31:30.548Z,99.30
2019-05-10T03:35:34.067Z,99.50
2019-05-10T03:39:37.521Z,99.60
2019-05-10T03:43:41.221Z,99.90
2019-05-10T03:47:44.673Z,99.90
2019-05-10T03:51:48.202Z,99.90
2019-05-10T03:55:51.735Z,99.90
2019-05-10T03:59:55.557Z,99.90
2019-05-10T04:03:59.035Z,99.90
2019-05-10T04:08:02.821Z,99.90
2019-05-10T04:12:06.512Z,99.90
2019-05-10T04:16:09.963Z,99.90
2019-05-10T04:20:13.805Z,99.90
2019-05-10T04:24:17.507Z,99.90
2019-05-10T04:28:20.949Z,99.80
2019-05-10T04:32:24.663Z,99.80
2019-05-10T04:36:28.360Z,99.90
2019-05-10T04:40:32.066Z,99.60
2019-05-10T04:44:35.515Z,99.40
2019-05-10T04:48:38.995Z,99.40
2019-05-10T04:52:42.484Z,99.20
2019-05-10T04:56:46.203Z,99.70
2019-05-10T05:00:49.670Z,99.10
2019-05-10T05:04:53.145Z,99.50
2019-05-10T05:08:56.598Z,99.60
2019-05-10T05:13:00.290Z,99.90
2019-05-10T05:17:03.996Z,99.90
2019-05-10T05:21:07.772Z,99.90
2019-05-10T05:25:11.372Z,99.90
2019-05-10T05:29:14.830Z,99.90
2019-05-10T05:33:18.522Z,99.90
2019-05-10T05:37:22.052Z,99.90
2019-05-10T05:41:25.823Z,99.90
2019-05-10T05:45:33.995Z,99.90
2019-05-10T05:49:34.714Z,99.90
2019-05-10T05:53:42.432Z,99.90
2019-05-10T05:57:43.329Z,99.90
2019-05-10T06:01:46.781Z,99.90
2019-05-10T06:05:50.238Z,99.90
2019-05-10T06:09:53.714Z,99.90
2019-05-10T06:13:57.167Z,99.90
2019-05-10T06:18:03.630Z,99.90
2019-05-10T06:22:06.969Z,99.90
2019-05-10T06:26:21.052Z,99.90
2019-05-10T06:30:15.513Z,99.90
2019-05-10T06:34:19.878Z,99.90
2019-05-10T06:38:23.330Z,99.90
2019-05-10T06:42:28.810Z,99.90
2019-05-10T06:46:32.213Z,99.90
2019-05-10T06:50:35.671Z,99.90
2019-05-10T06:54:39.391Z,99.90
2019-05-10T06:58:43.127Z,99.90
2019-05-10T07:02:46.584Z,99.90
2019-05-10T07:06:50.055Z,99.90
2019-05-10T07:10:53.852Z,99.90
2019-05-10T07:14:57.801Z,99.90
2019-05-10T07:19:05.319Z,99.90
2019-05-10T07:23:08.815Z,99.90
2019-05-10T07:27:12.404Z,99.90
2019-05-10T07:31:15.857Z,99.90
2019-05-10T07:35:19.415Z,99.90
2019-05-10T07:39:22.850Z,99.60
2019-05-10T07:43:28.868Z,99.90
2019-05-10T07:47:34.293Z,99.90
2019-05-10T07:51:38.023Z,98.10
2019-05-10T07:55:41.597Z,97.30
2019-05-10T07:59:50.877Z,97.00
2019-05-10T08:03:52.419Z,98.50
2019-05-10T08:07:55.245Z,95.40
2019-05-10T08:12:03.222Z,94.40
2019-05-10T08:16:05.537Z,95.10
2019-05-10T08:20:20.365Z,95.40
2019-05-10T08:24:16.768Z,95.10
2019-05-10T08:28:22.772Z,95.80
2019-05-10T08:32:29.913Z,95.60
2019-05-10T08:36:32.172Z,96.10
2019-05-10T08:40:38.134Z,95.00
2019-05-10T08:44:43.307Z,95.90
2019-05-10T08:48:51.368Z,95.30
2019-05-10T08:52:56.738Z,95.00
2019-05-10T08:57:01.377Z,93.10
2019-05-10T09:01:16.654Z,91.80
2019-05-10T09:05:12.247Z,89.20
2019-05-10T09:09:14.666Z,89.50
2019-05-10T09:13:18.714Z,90.90
2019-05-10T09:17:27.020Z,93.30
2019-05-10T09:21:27.578Z,91.00
2019-05-10T09:25:33.650Z,91.20
2019-05-10T09:29:37.482Z,92.90
2019-05-10T09:33:49.179Z,91.20
2019-05-10T09:37:47.727Z,89.30
2019-05-10T09:41:52.804Z,91.40
2019-05-10T09:45:56.762Z,90.90
2019-05-10T09:50:02.258Z,92.20
2019-05-10T09:54:07.701Z,92.80
2019-05-10T09:58:10.586Z,94.60
2019-05-10T10:02:18.895Z,96.30
2019-05-10T10:06:22.011Z,96.10
2019-05-10T10:10:31.685Z,96.70
2019-05-10T10:14:37.777Z,95.80
2019-05-10T10:18:37.095Z,95.40
2019-05-10T10:22:43.454Z,95.70
2019-05-10T10:26:48.202Z,95.60
2019-05-10T10:30:58.901Z,94.40
2019-05-10T10:34:57.802Z,93.80
2019-05-10T10:39:01.394Z,96.00
2019-05-10T10:43:07.266Z,94.90
2019-05-10T10:47:10.340Z,94.00
2019-05-10T10:51:13.993Z,93.40
2019-05-10T10:55:18.728Z,92.70
2019-05-10T10:59:22.326Z,93.90
2019-05-10T11:03:30.503Z,91.30
2019-05-10T11:07:35.296Z,91.40
2019-05-10T11:11:44.364Z,93.50
2019-05-10T11:15:42.158Z,95.80
2019-05-10T11:19:45.682Z,97.90
2019-05-10T11:23:49.459Z,99.00
2019-05-10T11:27:58.379Z,99.20
2019-05-10T11:32:12.077Z,98.30
2019-05-10T11:36:08.424Z,97.90
2019-05-10T11:40:11.323Z,97.80
2019-05-10T11:44:14.458Z,97.90
2019-05-10T11:48:17.907Z,98.30
2019-05-10T11:52:21.805Z,98.40
2019-05-10T11:56:27.751Z,97.40
2019-05-10T12:00:34.073Z,95.00
2019-05-10T12:08:42.001Z,95.80
2019-05-10T12:13:01.721Z,95.10
2019-05-10T12:16:54.495Z,95.70
2019-05-10T12:25:27.435Z,96.40
2019-05-10T12:26:20.249Z,96.10
2019-05-10T12:26:31.417Z,95.30
2019-05-10T12:29:11.839Z,96.00
2019-05-10T12:33:24.085Z,96.00
2019-05-10T12:37:17.481Z,95.50
2019-05-10T12:41:23.220Z,96.20
2019-05-10T12:45:26.102Z,94.40
2019-05-10T12:49:31.508Z,92.60
2019-05-10T12:53:36.791Z,94.90
2019-05-10T12:57:43.047Z,93.20
2019-05-10T13:01:45.662Z,92.60
2019-05-10T13:05:53.296Z,93.00
2019-05-10T13:10:02.110Z,93.10
2019-05-10T13:14:01.031Z,93.30
2019-05-10T13:18:05.210Z,94.00
2019-05-10T13:22:08.655Z,94.10
2019-05-10T13:26:12.423Z,93.80
2019-05-10T13:30:17.115Z,93.20
2019-05-10T13:34:23.946Z,93.20
2019-05-10T13:38:25.710Z,94.10
2019-05-10T13:42:29.425Z,93.80
2019-05-10T13:46:32.885Z,93.80
2019-05-10T13:50:36.588Z,94.30
2019-05-10T13:54:40.022Z,95.70
2019-05-10T13:58:43.475Z,96.00
2019-05-10T14:02:46.922Z,95.60
2019-05-10T14:06:50.382Z,96.20
2019-05-10T14:10:56.019Z,95.60
2019-05-10T14:15:02.544Z,96.20
2019-05-10T14:19:04.546Z,94.70
2019-05-10T14:23:08.067Z,91.60
2019-05-10T14:27:11.514Z,92.00
2019-05-10T14:31:15.224Z,92.20
2019-05-10T14:35:22.610Z,93.20
2019-05-10T14:39:24.105Z,92.70
2019-05-10T14:43:27.546Z,93.60
2019-05-10T14:47:31.008Z,92.10
2019-05-10T14:51:49.521Z,92.10
2019-05-10T14:55:39.744Z,91.10
2019-05-10T15:03:54.189Z,90.70
2019-05-10T15:07:57.663Z,90.80
2019-05-10T15:12:01.651Z,91.30
2019-05-10T15:16:09.624Z,91.90
2019-05-10T15:20:10.787Z,92.50
2019-05-10T15:24:14.541Z,91.90
2019-05-10T15:28:18.269Z,91.20
2019-05-10T15:32:22.098Z,91.90
2019-05-10T15:36:29.631Z,90.70
2019-05-10T15:40:31.281Z,91.50
2019-05-10T15:48:58.681Z,91.40
2019-05-10T15:53:02.135Z,90.20
2019-05-10T15:57:05.614Z,89.30
2019-05-10T16:01:09.204Z,90.30
2019-05-10T16:05:24.049Z,90.00
2019-05-10T16:09:19.229Z,91.50
2019-05-10T16:13:25.086Z,90.40
2019-05-10T16:17:28.469Z,91.60
2019-05-10T16:21:31.960Z,90.90
2019-05-10T16:25:41.131Z,90.90
2019-05-10T16:29:42.412Z,90.50
2019-05-10T16:33:48.251Z,90.20
2019-05-10T16:37:51.303Z,91.00
2019-05-10T16:41:54.773Z,90.00
2019-05-10T16:45:58.290Z,90.50
2019-05-10T16:50:01.785Z,89.20
2019-05-10T16:54:05.307Z,88.30
2019-05-10T16:58:09.427Z,88.80
2019-05-10T17:02:14.174Z,87.00
2019-05-10T17:06:17.635Z,88.30
2019-05-10T17:10:21.082Z,90.40
2019-05-10T17:14:24.536Z,86.30
2019-05-10T17:18:27.988Z,87.50
2019-05-10T17:22:31.433Z,83.70
2019-05-10T17:26:34.895Z,82.80
2019-05-10T17:30:38.384Z,83.60
2019-05-10T17:34:41.839Z,83.10
2019-05-10T17:38:47.472Z,86.30
2019-05-10T17:42:52.093Z,85.70
2019-05-10T17:46:57.403Z,85.60
2019-05-10T17:51:00.765Z,87.90
2019-05-10T17:55:11.018Z,88.50
2019-05-10T17:59:13.928Z,88.20
2019-05-10T18:03:17.585Z,90.00
2019-05-10T18:07:21.076Z,87.50
2019-05-10T18:11:24.522Z,90.50
2019-05-10T18:15:32.749Z,91.40
2019-05-10T18:19:33.147Z,92.10
2019-05-10T18:23:36.629Z,92.70
2019-05-10T18:27:40.145Z,93.90
2019-05-10T18:31:54.732Z,94.60
2019-05-10T18:35:53.042Z,95.00
2019-05-10T18:39:54.722Z,95.10
2019-05-10T18:43:58.591Z,95.40
2019-05-10T18:48:02.115Z,95.90
2019-05-10T18:52:06.639Z,95.80
2019-05-10T18:56:12.310Z,96.00
2019-05-10T19:00:17.627Z,96.10
2019-05-10T19:04:22.195Z,96.40
2019-05-10T19:08:25.694Z,96.00
2019-05-10T19:12:29.688Z,95.90
2019-05-10T19:16:34.425Z,95.90
2019-05-10T19:20:38.516Z,96.60
2019-05-10T19:24:42.023Z,97.10
2019-05-10T19:28:45.549Z,97.00
2019-05-10T19:32:50.960Z,95.70
2019-05-10T19:36:55.158Z,96.20
2019-05-10T19:40:58.733Z,96.10
2019-05-10T19:45:02.285Z,97.10
2019-05-10T19:49:07.403Z,97.90
2019-05-10T19:53:10.931Z,97.50
2019-05-10T19:57:16.370Z,97.00
2019-05-10T20:01:19.748Z,96.80
2019-05-10T20:05:23.425Z,97.40
2019-05-10T20:09:27.184Z,96.90
2019-05-10T20:13:31.336Z,97.30
2019-05-10T20:17:35.857Z,98.00
2019-05-10T20:21:39.433Z,97.90
2019-05-10T20:25:42.892Z,98.50
2019-05-10T20:29:46.579Z,98.90
2019-05-10T20:33:50.272Z,99.20
2019-05-10T20:38:02.223Z,99.00
2019-05-10T20:41:58.892Z,99.20
2019-05-10T20:51:05.258Z,98.40
2019-05-10T20:55:09.235Z,98.10
2019-05-10T20:59:12.676Z,97.60
2019-05-10T21:03:16.136Z,97.70
2019-05-10T21:07:21.126Z,97.60
2019-05-10T21:11:25.602Z,98.20
2019-05-10T21:15:29.037Z,98.70
2019-05-10T21:19:32.475Z,98.50
2019-05-10T21:23:36.199Z,98.90
2019-05-10T21:27:42.642Z,99.90
2019-05-10T21:31:46.185Z,99.90
2019-05-10T21:35:51.414Z,99.90
2019-05-10T21:39:57.622Z,98.40
2019-05-10T21:44:01.121Z,98.90
2019-05-10T21:48:04.585Z,99.10
2019-05-10T21:52:08.164Z,98.60
2019-05-10T21:56:11.926Z,99.30
2019-05-10T22:00:17.177Z,99.90
2019-05-10T22:04:20.631Z,99.90
2019-05-10T22:08:24.073Z,99.90
2019-05-10T22:12:27.774Z,99.80
2019-05-10T22:16:31.209Z,99.30
2019-05-10T22:20:34.645Z,99.50
2019-05-10T22:24:38.370Z,99.90
2019-05-10T22:28:41.826Z,99.90
2019-05-10T22:32:45.336Z,99.90
2019-05-10T22:36:48.781Z,99.90
2019-05-10T22:40:52.215Z,99.90
2019-05-10T22:44:55.666Z,99.90
2019-05-10T22:48:59.109Z,99.90
2019-05-10T22:53:02.553Z,99.90
2019-05-10T22:57:05.989Z,99.90
2019-05-10T23:01:09.669Z,99.90
2019-05-10T23:05:13.466Z,99.90
2019-05-10T23:09:24.732Z,99.50
2019-05-10T23:13:22.098Z,99.90
2019-05-10T23:17:25.538Z,99.90
2019-05-10T23:21:28.986Z,99.90
2019-05-10T23:25:32.985Z,99.90
2019-05-10T23:29:36.704Z,99.90
2019-05-10T23:33:40.150Z,99.90
2019-05-10T23:37:43.603Z,99.90
2019-05-10T23:41:47.294Z,99.00
2019-05-10T23:45:50.733Z,99.20
2019-05-10T23:49:54.181Z,99.30
2019-05-10T23:53:57.631Z,99.00
2019-05-10T23:58:01.074Z,99.60
